createdAt,value
2022-10-01T00:00:22.628Z,95071.88
2022-10-01T00:02:49.214Z,95071.97
2022-10-01T00:05:15.824Z,95064.69
2022-10-01T00:07:44.304Z,95071.06
2022-10-01T00:10:12.438Z,95057.03
2022-10-01T00:12:43.407Z,95059.81
2022-10-01T00:15:13.362Z,95055.28
2022-10-01T00:17:40.116Z,95057.13
2022-10-01T00:20:13.990Z,95052.50
2022-10-01T00:22:40.532Z,95052.41
2022-10-01T00:25:07.388Z,95048.63
2022-10-01T00:27:34.141Z,95050.56
2022-10-01T00:30:00.626Z,95060.31
2022-10-01T00:32:27.114Z,95065.50
2022-10-01T00:34:56.746Z,95066.34
2022-10-01T00:37:23.740Z,95060.25
2022-10-01T00:39:50.205Z,95072.34
2022-10-01T00:42:24.782Z,95074.53
2022-10-01T00:44:51.507Z,95073.19
2022-10-01T00:47:30.107Z,95076.78
2022-10-01T00:50:05.951Z,95086.47
2022-10-01T00:52:35.239Z,95082.44
2022-10-01T00:55:13.720Z,95080.91
2022-10-01T00:57:40.944Z,95087.16
2022-10-01T01:00:09.216Z,95089.25
2022-10-01T01:02:35.950Z,95088.81
2022-10-01T01:05:03.095Z,95084.63
2022-10-01T01:07:32.740Z,95084.50
2022-10-01T01:10:00.582Z,95082.72
2022-10-01T01:12:46.543Z,95082.03
2022-10-01T01:15:30.086Z,95079.25
2022-10-01T01:17:56.588Z,95084.53
2022-10-01T01:20:55.791Z,95095.94
2022-10-01T01:23:59.886Z,95089.53
2022-10-01T01:26:50.866Z,95076.03
2022-10-01T01:29:23.988Z,95075.88
2022-10-01T01:31:50.816Z,95082.66
2022-10-01T01:34:26.660Z,95071.53
2022-10-01T01:37:07.016Z,95074.22
2022-10-01T01:39:38.516Z,95087.59
2022-10-01T01:42:10.254Z,95090.53
2022-10-01T01:44:40.201Z,95090.09
2022-10-01T01:47:07.618Z,95099.00
2022-10-01T01:49:34.303Z,95087.00
2022-10-01T01:52:05.696Z,95090.38
2022-10-01T01:54:32.420Z,95090.97
2022-10-01T01:57:00.127Z,95091.44
2022-10-01T01:59:28.341Z,95085.28
2022-10-01T02:01:54.869Z,95086.19
2022-10-01T02:04:35.288Z,95086.97
2022-10-01T02:07:04.944Z,95092.94
2022-10-01T02:09:37.300Z,95093.72
2022-10-01T02:12:09.356Z,95090.84
2022-10-01T02:14:54.821Z,95085.78
2022-10-01T02:17:24.807Z,95078.44
2022-10-01T02:20:02.594Z,95082.97
2022-10-01T02:22:44.279Z,95087.56
2022-10-01T02:25:11.492Z,95096.94
2022-10-01T02:27:44.278Z,95095.28
2022-10-01T02:30:11.849Z,95097.31
2022-10-01T02:32:40.480Z,95097.69
2022-10-01T02:35:10.415Z,95101.66
2022-10-01T02:37:37.878Z,95098.63
2022-10-01T02:40:08.605Z,95094.09
2022-10-01T02:42:36.671Z,95100.59
2022-10-01T02:45:04.587Z,95099.63
2022-10-01T02:47:37.698Z,95100.34
2022-10-01T02:50:05.555Z,95099.28
2022-10-01T02:52:52.678Z,95104.50
2022-10-01T02:55:24.262Z,95095.78
2022-10-01T02:57:51.133Z,95091.25
2022-10-01T03:00:18.964Z,95101.31
2022-10-01T03:02:45.971Z,95095.22
2022-10-01T03:05:12.518Z,95092.56
2022-10-01T03:07:39.339Z,95084.78
2022-10-01T03:10:06.539Z,95087.00
2022-10-01T03:12:33.274Z,95094.31
2022-10-01T03:14:59.731Z,95098.13
2022-10-01T03:17:26.808Z,95105.31
2022-10-01T03:19:54.369Z,95099.06
2022-10-01T03:22:22.377Z,95093.91
2022-10-01T03:24:50.065Z,95107.19
2022-10-01T03:27:16.852Z,95086.78
2022-10-01T03:29:44.260Z,95088.19
2022-10-01T03:32:11.272Z,95082.59
2022-10-01T03:34:37.711Z,95082.81
2022-10-01T03:37:08.070Z,95085.81
2022-10-01T03:39:34.671Z,95087.69
2022-10-01T03:42:01.178Z,95098.34
2022-10-01T03:44:28.906Z,95090.31
2022-10-01T03:46:55.997Z,95091.53
2022-10-01T03:49:23.880Z,95090.03
2022-10-01T03:51:52.106Z,95090.66
2022-10-01T03:54:18.643Z,95088.91
2022-10-01T03:56:45.223Z,95101.75
2022-10-01T03:59:12.142Z,95103.09
2022-10-01T04:01:39.440Z,95109.03
2022-10-01T04:04:06.918Z,95115.63
2022-10-01T04:06:33.528Z,95111.66
2022-10-01T04:09:00.184Z,95119.59
2022-10-01T04:11:26.665Z,95119.94
2022-10-01T04:14:13.275Z,95126.06
2022-10-01T04:16:39.761Z,95122.66
2022-10-01T04:19:06.346Z,95122.19
2022-10-01T04:21:33.474Z,95123.09
2022-10-01T04:24:00.303Z,95131.97
2022-10-01T04:26:26.777Z,95136.44
2022-10-01T04:28:53.470Z,95133.06
2022-10-01T04:31:20.031Z,95144.63
2022-10-01T04:33:46.548Z,95140.78
2022-10-01T04:36:13.062Z,95144.88
2022-10-01T04:38:39.521Z,95144.22
2022-10-01T04:41:06.070Z,95145.78
2022-10-01T04:43:32.553Z,95144.13
2022-10-01T04:45:59.253Z,95157.91
2022-10-01T04:48:25.854Z,95147.69
2022-10-01T04:50:52.424Z,95157.63
2022-10-01T04:53:19.055Z,95167.69
2022-10-01T04:55:45.537Z,95155.53
2022-10-01T04:58:12.032Z,95157.38
2022-10-01T05:00:38.590Z,95156.72
2022-10-01T05:03:05.068Z,95161.94
2022-10-01T05:05:31.619Z,95158.66
2022-10-01T05:08:01.118Z,95158.19
2022-10-01T05:10:27.749Z,95159.16
2022-10-01T05:12:54.542Z,95158.63
2022-10-01T05:15:21.316Z,95157.66
2022-10-01T05:17:48.205Z,95159.28
2022-10-01T05:20:17.705Z,95164.13
2022-10-01T05:22:45.278Z,95168.81
2022-10-01T05:25:11.828Z,95165.00
2022-10-01T05:27:38.987Z,95170.59
2022-10-01T05:30:06.234Z,95170.00
2022-10-01T05:32:32.690Z,95168.59
2022-10-01T05:34:59.143Z,95165.59
2022-10-01T05:37:25.639Z,95175.75
2022-10-01T05:39:52.847Z,95173.22
2022-10-01T05:42:19.592Z,95173.78
2022-10-01T05:44:47.436Z,95171.41
2022-10-01T05:47:14.158Z,95184.22
2022-10-01T05:49:42.687Z,95181.72
2022-10-01T05:52:13.014Z,95176.25
2022-10-01T05:54:39.768Z,95174.06
2022-10-01T05:57:07.197Z,95179.50
2022-10-01T05:59:34.491Z,95165.91
2022-10-01T06:02:01.098Z,95157.56
2022-10-01T06:04:27.693Z,95148.81
2022-10-01T06:06:54.264Z,95147.25
2022-10-01T06:09:21.867Z,95154.94
2022-10-01T06:11:48.690Z,95152.28
2022-10-01T06:14:15.787Z,95145.81
2022-10-01T06:16:42.314Z,95145.47
2022-10-01T06:19:09.209Z,95147.78
2022-10-01T06:21:36.075Z,95159.03
2022-10-01T06:24:03.176Z,95160.06
2022-10-01T06:26:29.644Z,95167.53
2022-10-01T06:28:56.163Z,95158.31
2022-10-01T06:31:23.126Z,95154.16
2022-10-01T06:33:49.645Z,95148.78
2022-10-01T06:36:16.135Z,95171.59
2022-10-01T06:38:42.764Z,95158.94
2022-10-01T06:41:09.333Z,95175.75
2022-10-01T06:43:35.794Z,95188.78
2022-10-01T06:46:03.911Z,95181.63
2022-10-01T06:48:31.205Z,95174.97
2022-10-01T06:50:58.477Z,95179.22
2022-10-01T06:53:27.161Z,95186.78
2022-10-01T06:55:53.784Z,95191.88
2022-10-01T06:58:22.772Z,95197.63
2022-10-01T07:00:50.305Z,95196.19
2022-10-01T07:03:21.522Z,95202.97
2022-10-01T07:05:49.571Z,95207.34
2022-10-01T07:08:16.451Z,95201.75
2022-10-01T07:10:43.465Z,95207.31
2022-10-01T07:13:18.216Z,95220.25
2022-10-01T07:15:45.237Z,95231.72
2022-10-01T07:18:12.402Z,95252.19
2022-10-01T07:20:40.361Z,95249.66
2022-10-01T07:23:10.655Z,95234.97
2022-10-01T07:25:38.773Z,95237.16
2022-10-01T07:28:06.482Z,95230.19
2022-10-01T07:30:34.063Z,95223.25
2022-10-01T07:33:00.690Z,95209.78
2022-10-01T07:35:27.680Z,95218.84
2022-10-01T07:37:56.361Z,95220.53
2022-10-01T07:40:23.009Z,95220.47
2022-10-01T07:42:56.194Z,95219.34
2022-10-01T07:45:24.162Z,95221.03
2022-10-01T07:48:01.820Z,95231.75
2022-10-01T07:50:31.631Z,95228.69
2022-10-01T07:52:59.031Z,95222.75
2022-10-01T07:55:27.243Z,95220.47
2022-10-01T07:57:55.083Z,95219.22
2022-10-01T08:00:22.863Z,95223.50
2022-10-01T08:02:50.948Z,95220.75
2022-10-01T08:05:18.885Z,95213.00
2022-10-01T08:07:46.207Z,95207.59
2022-10-01T08:10:13.436Z,95222.25
2022-10-01T08:12:40.320Z,95217.19
2022-10-01T08:15:07.573Z,95224.53
2022-10-01T08:17:34.267Z,95223.63
2022-10-01T08:20:01.143Z,95227.31
2022-10-01T08:22:27.637Z,95221.88
2022-10-01T08:24:54.159Z,95222.97
2022-10-01T08:27:20.627Z,95227.19
2022-10-01T08:29:47.113Z,95233.66
2022-10-01T08:32:14.020Z,95242.59
2022-10-01T08:34:45.882Z,95243.78
2022-10-01T08:37:12.501Z,95256.97
2022-10-01T08:39:38.950Z,95252.81
2022-10-01T08:42:32.196Z,95259.50
2022-10-01T08:45:01.882Z,95255.38
2022-10-01T08:47:41.216Z,95254.31
2022-10-01T08:50:29.057Z,95269.09
2022-10-01T08:53:00.479Z,95260.69
2022-10-01T08:55:28.530Z,95254.44
2022-10-01T08:57:58.970Z,95254.91
2022-10-01T09:00:25.728Z,95256.06
2022-10-01T09:02:52.363Z,95264.59
2022-10-01T09:05:52.498Z,95255.81
2022-10-01T09:08:40.820Z,95268.75
2022-10-01T09:11:19.687Z,95267.22
2022-10-01T09:14:01.811Z,95280.19
2022-10-01T09:16:34.795Z,95273.47
2022-10-01T09:19:05.105Z,95285.81
2022-10-01T09:21:43.203Z,95280.72
2022-10-01T09:24:14.939Z,95288.03
2022-10-01T09:26:44.925Z,95293.19
2022-10-01T09:29:17.648Z,95302.22
2022-10-01T09:31:46.177Z,95301.41
2022-10-01T09:34:15.039Z,95305.28
2022-10-01T09:37:03.649Z,95302.06
2022-10-01T09:39:35.072Z,95311.09
2022-10-01T09:42:01.587Z,95311.53
2022-10-01T09:44:30.180Z,95310.19
2022-10-01T09:46:56.926Z,95323.81
2022-10-01T09:49:31.177Z,95320.28
2022-10-01T09:52:04.431Z,95324.56
2022-10-01T09:54:34.843Z,95322.81
2022-10-01T09:57:08.918Z,95322.25
2022-10-01T09:59:42.803Z,95335.66
2022-10-01T10:02:17.913Z,95332.63
2022-10-01T10:04:44.543Z,95329.41
2022-10-01T10:07:16.211Z,95336.03
2022-10-01T10:09:42.690Z,95342.16
2022-10-01T10:12:27.995Z,95349.53
2022-10-01T10:14:55.649Z,95335.53
2022-10-01T10:17:22.612Z,95331.97
2022-10-01T10:19:50.889Z,95325.19
2022-10-01T10:22:28.055Z,95335.22
2022-10-01T10:24:55.824Z,95346.28
2022-10-01T10:27:28.060Z,95352.59
2022-10-01T10:30:19.540Z,95349.25
2022-10-01T10:32:46.705Z,95352.66
2022-10-01T10:35:17.974Z,95355.16
2022-10-01T10:37:50.951Z,95343.63
2022-10-01T10:40:19.784Z,95349.25
2022-10-01T10:42:50.993Z,95349.91
2022-10-01T10:45:19.940Z,95366.66
2022-10-01T10:47:49.342Z,95362.78
2022-10-01T10:50:29.786Z,95372.78
2022-10-01T10:52:57.031Z,95369.56
2022-10-01T10:55:31.196Z,95365.66
2022-10-01T10:58:10.790Z,95372.09
2022-10-01T11:00:45.139Z,95370.38
2022-10-01T11:03:14.687Z,95375.97
2022-10-01T11:05:42.542Z,95361.91
2022-10-01T11:08:18.922Z,95354.91
2022-10-01T11:10:58.166Z,95370.47
2022-10-01T11:13:27.561Z,95364.31
2022-10-01T11:16:29.707Z,95369.88
2022-10-01T11:19:11.455Z,95372.66
2022-10-01T11:21:53.131Z,95370.56
2022-10-01T11:24:41.672Z,95366.56
2022-10-01T11:27:29.453Z,95355.34
2022-10-01T11:30:05.330Z,95373.53
2022-10-01T11:32:38.764Z,95382.06
2022-10-01T11:35:23.350Z,95372.78
2022-10-01T11:38:16.256Z,95370.13
2022-10-01T11:40:46.020Z,95365.63
2022-10-01T11:43:26.739Z,95356.63
2022-10-01T11:46:01.028Z,95355.81
2022-10-01T11:48:39.626Z,95374.16
2022-10-01T11:51:16.645Z,95374.25
2022-10-01T11:53:48.431Z,95380.72
2022-10-01T11:56:22.977Z,95371.94
2022-10-01T11:59:08.222Z,95381.84
2022-10-01T12:02:06.354Z,95364.56
2022-10-01T12:04:37.176Z,95360.66
2022-10-01T12:07:22.299Z,95367.19
2022-10-01T12:09:55.072Z,95363.34
2022-10-01T12:12:39.233Z,95373.06
2022-10-01T12:15:20.992Z,95364.22
2022-10-01T12:17:57.979Z,95356.72
2022-10-01T12:20:31.562Z,95356.44
2022-10-01T12:22:59.046Z,95367.47
2022-10-01T12:25:42.369Z,95352.66
2022-10-01T12:28:22.640Z,95362.81
2022-10-01T12:31:00.234Z,95366.00
2022-10-01T12:33:40.419Z,95361.56
2022-10-01T12:36:09.841Z,95363.59
2022-10-01T12:38:58.031Z,95362.13
2022-10-01T12:41:24.428Z,95360.84
2022-10-01T12:43:57.454Z,95360.09
2022-10-01T12:46:42.131Z,95376.91
2022-10-01T12:49:40.949Z,95363.50
2022-10-01T12:52:19.179Z,95383.47
2022-10-01T12:55:15.967Z,95377.31
2022-10-01T12:58:19.144Z,95372.44
2022-10-01T13:01:03.958Z,95365.91
2022-10-01T13:03:45.549Z,95372.81
2022-10-01T13:06:41.409Z,95370.16
2022-10-01T13:09:16.668Z,95363.53
2022-10-01T13:12:08.053Z,95366.28
2022-10-01T13:14:34.938Z,95363.91
2022-10-01T13:17:33.883Z,95365.31
2022-10-01T13:20:03.675Z,95383.69
2022-10-01T13:22:48.393Z,95385.75
2022-10-01T13:25:23.962Z,95395.06
2022-10-01T13:27:59.000Z,95391.94
2022-10-01T13:30:27.430Z,95394.03
2022-10-01T13:33:01.520Z,95395.47
2022-10-01T13:35:35.564Z,95406.00
2022-10-01T13:38:16.823Z,95396.53
2022-10-01T13:40:43.475Z,95403.16
2022-10-01T13:43:21.207Z,95396.56
2022-10-01T13:45:49.695Z,95395.69
2022-10-01T13:48:20.738Z,95403.22
2022-10-01T13:51:09.429Z,95402.19
2022-10-01T13:53:47.888Z,95410.81
2022-10-01T13:56:25.969Z,95406.63
2022-10-01T13:58:52.950Z,95397.69
2022-10-01T14:01:23.843Z,95403.22
2022-10-01T14:04:15.041Z,95400.13
2022-10-01T14:06:47.692Z,95405.28
2022-10-01T14:09:25.144Z,95406.75
2022-10-01T14:11:57.021Z,95408.78
2022-10-01T14:14:41.844Z,95407.53
2022-10-01T14:17:09.780Z,95406.09
2022-10-01T14:19:37.182Z,95413.09
2022-10-01T14:22:12.326Z,95409.00
2022-10-01T14:24:45.025Z,95405.13
2022-10-01T14:27:20.208Z,95412.06
2022-10-01T14:30:01.881Z,95408.75
2022-10-01T14:32:42.052Z,95412.25
2022-10-01T14:35:36.334Z,95404.72
2022-10-01T14:38:12.993Z,95394.56
2022-10-01T14:40:41.509Z,95394.56
2022-10-01T14:43:25.981Z,95388.84
2022-10-01T14:45:58.029Z,95384.19
2022-10-01T14:48:30.276Z,95384.47
2022-10-01T14:51:05.100Z,95385.69
2022-10-01T14:53:36.423Z,95397.78
2022-10-01T14:56:09.152Z,95431.09
2022-10-01T14:58:44.559Z,95425.69
2022-10-01T15:01:21.954Z,95416.31
2022-10-01T15:03:49.596Z,95412.19
2022-10-01T15:06:24.991Z,95407.88
2022-10-01T15:08:56.178Z,95428.66
2022-10-01T15:11:24.776Z,95418.88
2022-10-01T15:13:54.829Z,95416.47
2022-10-01T15:16:23.296Z,95415.75
2022-10-01T15:19:09.118Z,95403.41
2022-10-01T15:21:37.437Z,95409.06
2022-10-01T15:24:05.912Z,95427.19
2022-10-01T15:26:33.106Z,95430.44
2022-10-01T15:29:11.650Z,95444.94
2022-10-01T15:31:38.871Z,95442.41
2022-10-01T15:34:06.846Z,95424.13
2022-10-01T15:36:38.307Z,95411.69
2022-10-01T15:39:29.845Z,95408.22
2022-10-01T15:42:01.581Z,95409.50
2022-10-01T15:44:39.300Z,95410.56
2022-10-01T15:47:35.661Z,95420.63
2022-10-01T15:50:02.149Z,95429.22
2022-10-01T15:52:30.484Z,95424.13
2022-10-01T15:54:59.109Z,95417.09
2022-10-01T15:57:26.558Z,95415.63
2022-10-01T15:59:55.070Z,95406.53
2022-10-01T16:02:27.457Z,95418.00
2022-10-01T16:04:54.145Z,95415.97
2022-10-01T16:07:25.527Z,95412.47
2022-10-01T16:09:56.539Z,95427.81
2022-10-01T16:12:23.481Z,95430.97
2022-10-01T16:14:57.853Z,95433.75
2022-10-01T16:17:28.887Z,95439.56
2022-10-01T16:20:31.457Z,95450.09
2022-10-01T16:23:46.022Z,95456.16
2022-10-01T16:26:29.342Z,95462.22
2022-10-01T16:28:56.080Z,95471.75
2022-10-01T16:31:24.038Z,95481.22
2022-10-01T16:33:50.494Z,95486.44
2022-10-01T16:36:21.085Z,95487.88
2022-10-01T16:38:47.969Z,95490.13
2022-10-01T16:41:19.072Z,95482.31
2022-10-01T16:43:45.538Z,95484.63
2022-10-01T16:46:12.061Z,95491.25
2022-10-01T16:48:39.257Z,95503.03
2022-10-01T16:51:06.045Z,95499.28
2022-10-01T16:53:32.747Z,95506.09
2022-10-01T16:55:59.485Z,95510.03
2022-10-01T16:58:26.126Z,95529.66
2022-10-01T17:00:52.699Z,95500.13
2022-10-01T17:03:21.230Z,95502.34
2022-10-01T17:05:47.958Z,95514.28
2022-10-01T17:08:14.536Z,95511.50
2022-10-01T17:10:50.934Z,95496.81
2022-10-01T17:13:17.372Z,95503.22
2022-10-01T17:15:43.916Z,95499.97
2022-10-01T17:18:10.576Z,95498.56
2022-10-01T17:20:37.662Z,95507.91
2022-10-01T17:23:05.617Z,95520.16
2022-10-01T17:25:34.660Z,95520.88
2022-10-01T17:28:04.446Z,95515.13
2022-10-01T17:30:31.179Z,95521.81
2022-10-01T17:32:59.030Z,95507.47
2022-10-01T17:35:25.644Z,95503.78
2022-10-01T17:37:52.493Z,95512.78
2022-10-01T17:40:19.085Z,95520.56
2022-10-01T17:42:45.650Z,95522.63
2022-10-01T17:45:13.986Z,95525.84
2022-10-01T17:47:48.542Z,95511.22
2022-10-01T17:50:15.468Z,95523.47
2022-10-01T17:52:42.455Z,95528.22
2022-10-01T17:55:10.163Z,95525.69
2022-10-01T17:57:36.962Z,95527.03
2022-10-01T18:00:04.877Z,95538.78
2022-10-01T18:02:47.023Z,95539.03
2022-10-01T18:05:14.265Z,95558.53
2022-10-01T18:07:41.992Z,95550.22
2022-10-01T18:10:10.777Z,95545.94
2022-10-01T18:12:37.256Z,95555.41
2022-10-01T18:15:03.893Z,95566.78
2022-10-01T18:17:32.218Z,95562.56
2022-10-01T18:19:58.854Z,95554.72
2022-10-01T18:22:25.316Z,95562.94
2022-10-01T18:24:51.876Z,95584.91
2022-10-01T18:27:18.552Z,95586.75
2022-10-01T18:29:45.033Z,95596.03
2022-10-01T18:32:21.710Z,95588.16
2022-10-01T18:34:57.643Z,95602.16
2022-10-01T18:37:47.142Z,95601.78
2022-10-01T18:40:26.826Z,95592.84
2022-10-01T18:43:09.807Z,95602.50
2022-10-01T18:46:05.141Z,95611.09
2022-10-01T18:48:43.575Z,95615.69
2022-10-01T18:51:34.355Z,95625.31
2022-10-01T18:54:21.418Z,95629.72
2022-10-01T18:57:31.252Z,95627.63
2022-10-01T19:00:12.120Z,95632.25
2022-10-01T19:03:03.133Z,95633.06
2022-10-01T19:05:48.902Z,95629.34
2022-10-01T19:08:39.199Z,95625.31
2022-10-01T19:11:18.382Z,95628.91
2022-10-01T19:14:18.130Z,95629.94
2022-10-01T19:17:14.554Z,95620.56
2022-10-01T19:19:59.813Z,95605.72
2022-10-01T19:22:54.640Z,95605.13
2022-10-01T19:25:37.612Z,95612.88
2022-10-01T19:28:11.414Z,95607.06
2022-10-01T19:30:54.020Z,95613.31
2022-10-01T19:33:21.534Z,95610.31
2022-10-01T19:35:53.892Z,95623.16
2022-10-01T19:38:40.995Z,95623.63
2022-10-01T19:41:13.850Z,95618.09
2022-10-01T19:43:57.710Z,95620.38
2022-10-01T19:46:44.198Z,95612.88
2022-10-01T19:49:31.816Z,95617.84
2022-10-01T19:52:01.374Z,95626.56
2022-10-01T19:54:35.333Z,95619.09
2022-10-01T19:57:19.446Z,95615.44
2022-10-01T19:59:46.792Z,95642.28
2022-10-01T20:02:21.892Z,95654.47
2022-10-01T20:05:05.338Z,95660.94
2022-10-01T20:07:46.748Z,95683.94
2022-10-01T20:10:43.114Z,95692.41
2022-10-01T20:13:37.356Z,95683.63
2022-10-01T20:16:24.354Z,95672.06
2022-10-01T20:18:53.782Z,95675.41
2022-10-01T20:21:29.666Z,95686.16
2022-10-01T20:24:25.086Z,95700.75
2022-10-01T20:27:29.207Z,95702.94
2022-10-01T20:30:11.107Z,95688.81
2022-10-01T20:32:50.054Z,95687.66
2022-10-01T20:35:25.045Z,95678.19
2022-10-01T20:37:56.129Z,95672.06
2022-10-01T20:40:25.574Z,95674.84
2022-10-01T20:42:56.619Z,95668.19
2022-10-01T20:45:26.829Z,95680.50
2022-10-01T20:47:56.369Z,95692.41
2022-10-01T20:50:35.295Z,95696.25
2022-10-01T20:53:15.495Z,95705.84
2022-10-01T20:55:56.501Z,95708.75
2022-10-01T20:58:47.742Z,95711.25
2022-10-01T21:01:18.174Z,95706.06
2022-10-01T21:03:48.152Z,95713.34
2022-10-01T21:06:29.938Z,95722.22
2022-10-01T21:09:00.663Z,95710.88
2022-10-01T21:11:41.047Z,95709.28
2022-10-01T21:14:18.555Z,95723.19
2022-10-01T21:17:11.940Z,95713.47
2022-10-01T21:20:05.787Z,95716.13
2022-10-01T21:22:53.862Z,95719.59
2022-10-01T21:25:51.295Z,95722.97
2022-10-01T21:28:27.249Z,95726.91
2022-10-01T21:31:05.895Z,95729.09
2022-10-01T21:33:53.184Z,95737.44
2022-10-01T21:36:31.547Z,95738.59
2022-10-01T21:39:19.588Z,95734.31
2022-10-01T21:42:10.892Z,95727.16
2022-10-01T21:44:47.506Z,95729.78
2022-10-01T21:47:28.754Z,95741.75
2022-10-01T21:50:00.964Z,95760.81
2022-10-01T21:52:36.706Z,95760.13
2022-10-01T21:55:15.381Z,95765.47
2022-10-01T21:58:05.700Z,95761.75
2022-10-01T22:00:32.219Z,95769.75
2022-10-01T22:03:13.731Z,95766.75
2022-10-01T22:05:57.900Z,95766.28
2022-10-01T22:08:45.499Z,95769.50
2022-10-01T22:11:23.838Z,95771.47
2022-10-01T22:13:57.419Z,95777.75
2022-10-01T22:16:27.012Z,95774.03
2022-10-01T22:18:56.539Z,95770.91
2022-10-01T22:21:42.286Z,95773.94
2022-10-01T22:24:11.744Z,95784.47
2022-10-01T22:26:46.292Z,95773.56
2022-10-01T22:29:21.488Z,95781.63
2022-10-01T22:31:49.401Z,95774.78
2022-10-01T22:34:21.451Z,95779.19
2022-10-01T22:36:52.028Z,95782.41
2022-10-01T22:39:23.587Z,95779.31
2022-10-01T22:41:59.454Z,95787.66
2022-10-01T22:44:27.799Z,95780.03
2022-10-01T22:47:15.227Z,95788.50
2022-10-01T22:50:06.537Z,95790.59
2022-10-01T22:52:41.627Z,95792.25
2022-10-01T22:55:23.652Z,95785.88
2022-10-01T22:57:54.399Z,95779.81
2022-10-01T23:00:21.042Z,95785.97
2022-10-01T23:03:15.216Z,95778.69
2022-10-01T23:06:02.004Z,95776.72
2022-10-01T23:08:50.826Z,95778.69
2022-10-01T23:11:23.300Z,95783.06
2022-10-01T23:13:52.742Z,95787.56
2022-10-01T23:16:38.292Z,95800.50
2022-10-01T23:19:52.762Z,95793.94
2022-10-01T23:22:35.424Z,95789.31
2022-10-01T23:25:14.165Z,95800.66
2022-10-01T23:28:02.689Z,95801.28
2022-10-01T23:30:40.587Z,95801.59
2022-10-01T23:33:19.888Z,95792.44
2022-10-01T23:35:50.547Z,95805.41
2022-10-01T23:38:32.296Z,95798.53
2022-10-01T23:41:02.940Z,95797.56
2022-10-01T23:43:47.470Z,95799.94
2022-10-01T23:46:34.288Z,95795.59
2022-10-01T23:49:13.184Z,95797.09
2022-10-01T23:52:03.116Z,95806.28
2022-10-01T23:54:29.623Z,95808.41
2022-10-01T23:57:02.163Z,95810.88
2022-10-01T23:59:32.212Z,95807.53
